Atalandi — SVBA — position and weather

sailwx.info

Track history (hours):
 
Tides and Currents Weather Stations Pressure Air Temp Water Temp Dewpoint Dewpoint Depression Visibility Wind Speed Wind Dir Waves Ship Positions

Atalandi

Last reported at 2017-Jun-25 11:20 UTC. Time now 2017-Jun-25 12:09 UTC.
Position N 35°33' W 010°21'.

Length 248 m; draft 13.1 m.

Type: Ship (hazmat cat A). MMSI: 240269000.

Date/timePositionNaut miles runAvg speedWind from/ knotsBaromVisibWave heightAir tempDewpointWater temp
2017-Jun-25 11:20N 35°33' W 010°21'413.4
2017-Jun-25 11:00N 35°32' W 010°27'613.1
2017-Jun-25 10:30N 35°32' W 010°35'613.0
2017-Jun-25 10:00N 35°31' W 010°42'612.7
2017-Jun-25 09:30N 35°30' W 010°50'612.5
2017-Jun-25 09:00N 35°30' W 010°58'712.5
2017-Jun-25 08:27N 35°29' W 011°06'612.5
2017-Jun-25 08:00N 35°28' W 011°13'712.4
2017-Jun-25 07:27N 35°28' W 011°21'612.3
2017-Jun-25 06:56N 35°27' W 011°29'2012.6
2017-Jun-25 05:19N 35°25' W 011°54'512.4
2017-Jun-25 04:56N 35°24' W 011°60'512.4
2017-Jun-25 04:30N 35°24' W 012°06'4512.2
2017-Jun-25 00:52N 35°19' W 013°01'  
Track history (hours):
 
Tides and Currents Weather Stations Pressure Air Temp Water Temp Dewpoint Dewpoint Depression Visibility Wind Speed Wind Dir Waves Ship Positions

Atalandi

Last reported at 2017-Jun-25 11:20 UTC. Time now 2017-Jun-25 12:09 UTC.
Position N 35°33' W 010°21'.

Length 248 m; draft 13.1 m.

Type: Ship (hazmat cat A). MMSI: 240269000.

Date/timePositionNaut miles runAvg speedWind from/ knotsBaromVisibWave heightAir tempDewpointWater temp
2017-Jun-25 11:20N 35°33' W 010°21'413.4
2017-Jun-25 11:00N 35°32' W 010°27'613.1
2017-Jun-25 10:30N 35°32' W 010°35'613.0
2017-Jun-25 10:00N 35°31' W 010°42'612.7
2017-Jun-25 09:30N 35°30' W 010°50'612.5
2017-Jun-25 09:00N 35°30' W 010°58'712.5
2017-Jun-25 08:27N 35°29' W 011°06'612.5
2017-Jun-25 08:00N 35°28' W 011°13'712.4
2017-Jun-25 07:27N 35°28' W 011°21'612.3
2017-Jun-25 06:56N 35°27' W 011°29'2012.6
2017-Jun-25 05:19N 35°25' W 011°54'512.4
2017-Jun-25 04:56N 35°24' W 011°60'512.4
2017-Jun-25 04:30N 35°24' W 012°06'4512.2
2017-Jun-25 00:52N 35°19' W 013°01'  

Dump ship's entire track history